Terminal Aerodrome Forecast
Issued by NWS

Home | Current Version | Previous Version | Text Only | Print | Product List | Glossary On
Versions: 1 2 3 4 5 6 7 8 9 10 11 12
000
FTUS44 KJAN 211720
TAFGTR
TAF
KGTR 211720Z 2118/2218 16012KT P6SM SCT060 BKN100
     FM221100 16014G19KT P6SM OVC015
     FM221500 17017G20KT 6SM -RA BR OVC007
     FM221600 19016G20KT P6SM -RA OVC015=

USA.gov is the U.S. government's official web portal to all federal, state and local government web resources and services.